Not for real navigation | The accuracy of this data is not assured | See disclaimer for more information
ICAO NAME COUNTRY WIND Kt GUST Kt VIS TEMP/DEW BARO
LEAL Alicante / El Altet Spain 2 0 50 10/10 30.30
LEAL 170400Z VRB02KT 0050 R10/0225 R28/0400 FG VV001 10/10 Q1026 NOSIG
LEDA 2 0 50 8/8 30.24
LEDA 170400Z AUTO VRB02KT 0050 R31/0250N FG VV/// 08/08 Q1024
DAAG Dar-El-Beida Algeria 0 0 100 10/10 30.33
DAAG 170400Z 00000KT 0100 FG SCT005 10/10 Q1027
URWW Volgograd Russia 2 0 100 -10/-11 30.62
URWW 170400Z 13002KT 0100 R06/0250N FZFG VV001 M10/M11 Q1037 R06/110065 NOSIG RMK QBB040 OBST OBSC
LEBT 2 0 150 9/9 30.27
LEBT 170400Z AUTO VRB02KT 0150 R27/0375N FG VV003 09/09 Q1025

Show more

Close Menu